Bellingham, Massachusetts
Current Conditions -  °F | °C
As of 1:35 PM on Wednesday 26 Nov 2014 (Local Time) from KSFZ Reporting Station
Overcast Overcast  
Wind Chill: 26°   Ceiling: 300
Heat Index: 34°   Visibility: 1.5mi
Dew Point: 27°   Wind: 10mph
Humidity: 75%   Direction: 10°N
Pressure: 30.01"   Gusts: NA
Location:  42.09°N, 71.47°W
Report Text: KSFZ 261835Z 01009KT 1 1/2SM OVC003 01/M03 A3001 RMK AO1
Loading
Personal Weather Stations






























Interactive Weather Map New forecast layout! Learn more

10-Day Weather Forecast

Advertisements
Track Severe Weather on mobile